URWAURWI

Guest
Details From URWA - Astrakhan
To URWI - Elista
Flight Number -
Tags Routegen Generated
Created
Modified
Stats Distance 151 nm / 280 km
Max Altitude 700 ft / 213 m
Waypoints 5
Social Downloads 2
Likes 0
Share VATSIM

Download

Looking for another format? Having issues loading an existing format? Contact us
Advertisement - Login to hide

Notes

Departing runway 27 URWA. Arriving runway 9 URWI.

Route

URWA +46.29_+047.89 +46.33_+046.62 +46.36_+044.45 URWI

ID Type Via Altitude Latitude Longitude Leg Dist Tot Dist Heading (true) Name
O URWA APT - 700 ft / 213 m 46.28451˚ 47.99015˚ - 0 nm - -
+46.29_+047.89 LATLON - 700 ft / 213 m 46.29207˚ 47.88600˚ 4 nm 4 nm 276° / 276° -
+46.33_+046.62 LATLON - 700 ft / 213 m 46.32907˚ 46.61900˚ 52 nm 56 nm 273° / 272° -
+46.36_+044.45 LATLON - 700 ft / 213 m 46.36365˚ 44.45071˚ 89 nm 146 nm 272° / 271° -
O URWI APT - 0 ft / 0 m 46.37314˚ 44.34674˚ 4 nm 151 nm 278° / 277° -

Altitude Profile

Advertisement - Login to hide

URWA

Details ICAO URWA (ASF)
Name ASTRAKHAN
Region Russia
Timezone Europe/Volgograd (UTC+3.0)
Stats Elevation -65 ft / -20 m (AMSL)
Location 46.280732° 48.006186°
Runways 2
Magnetic Variation 8.390° E

METAR

URWA 141900Z 11006MPS CAVOK M03/M05 Q1027 R09/010060 NOSIG RMK QFE772/1030

Decode

TAF

Not found

Departure Runways

ID Width Length Bearing (true) Bearing (mag) Surface Threshold Offset Overrun Length
09 138 ft / 42 m 8,181 ft / 2,494 m 96.01° 87.62° Concrete 0 ft / 0 m 165 ft / 50 m
11 330 ft / 101 m 5,083 ft / 1,549 m 120.87° 112.48° Grass 0 ft / 0 m 0 ft / 0 m
27 138 ft / 42 m 8,181 ft / 2,494 m 276.03° 267.64° Concrete 0 ft / 0 m 165 ft / 50 m
29 330 ft / 101 m 5,083 ft / 1,549 m 300.88° 292.49° Grass 0 ft / 0 m 0 ft / 0 m

URWI

Details ICAO URWI (ESL)
Name ELISTA
Region Russia
Timezone Europe/Moscow (UTC+3.0)
Stats Elevation 501 ft / 153 m (AMSL)
Location 46.374210° 44.331387°
Runways 2
Magnetic Variation 8.218° E

METAR

URWI 141900Z AUTO 12009MPS 9999 // ///009/// 02/01 Q1020

Decode

TAF

Not found

Destination Runways

ID Width Length Bearing (true) Bearing (mag) Surface Threshold Offset Overrun Length
09 148 ft / 45 m 6,913 ft / 2,107 m 97.79° 89.57° Asphalt 0 ft / 0 m 0 ft / 0 m
09L 280 ft / 85 m 7,535 ft / 2,297 m 97.48° 89.26° Dirt 0 ft / 0 m 0 ft / 0 m
27 148 ft / 45 m 6,913 ft / 2,107 m 277.81° 269.59° Asphalt 0 ft / 0 m 160 ft / 49 m
27R 280 ft / 85 m 7,535 ft / 2,297 m 277.50° 269.28° Dirt 0 ft / 0 m 0 ft / 0 m

Popular Alternatives